Hereford, TX

5:35 PM CST on February 27, 2017 (GMT -0600)
Hereford Municipal

Weather History for KHRX - August, 2013

Change the Weather History Date:

Thursday, August 22, 2013

  Actual Average (KAMA) Record (KAMA)
Temperature  
Mean Temperature 75 °F -  
Max Temperature 93 °F 87 °F 101 °F (1922)
Min Temperature 57 °F 62 °F 53 °F (1966)
Cooling Degree Days 10    
Growing Degree Days 25 (Base 50)    
Moisture  
Dew Point 48 °F    
Average Humidity 43    
Maximum Humidity 83    
Minimum Humidity 14    
Precipitation  
Precipitation 0.00 in - - ()
Sea Level Pressure  
Sea Level Pressure 30.15 in    
Wind  
Wind Speed 8 mph (South)    
Max Wind Speed 16 mph    
Max Gust Speed 25 mph    
Visibility 10 miles    
Events      
Averages and records for this station are not official NWS values.
T = Trace of Precipitation, MM = Missing Value Source: NWS Daily Summary

Daily Weather History Graph

Daily Weather History Graph

Search for Another Location

Airport or City:

Trip Planner

Search our weather history database for the weather conditions in past years. The results will help you decide how hot, cold, wet, or windy it might be!

Date:

Astronomy

Aug. 22, 2013 Rise Set
Actual Time 7:15 AM CDT 8:28 PM CDT
Civil Twilight 6:48 AM CDT 8:54 PM CDT
Nautical Twilight 6:17 AM CDT 9:26 PM CDT
Astronomical Twilight 5:44 AM CDT 9:58 PM CDT
Moon 9:22 PM CDT (8/22) 8:59 AM CDT (8/22)
Length of Visible Light 14h 06m
Length of Day
13h 13m
Waning Gibbous, 96% of the Moon is Illuminated
Aug 22
Waning Gibbous
Aug 28
Last Quarter
Sep 5
New
Sep 12
First Quarter
Sep 19
Full

Hourly Weather History & Observations

Time (CDT) Temp. Dew Point Humidity Pressure Visibility Wind Dir Wind Speed Gust Speed Precip Events Conditions
12:15 AM 66.4 °F 52.2 °F 60% 30.18 in 10.0 mi South 8.1 mph - N/A   Clear
12:35 AM 66.4 °F 52.0 °F 60% 30.18 in 10.0 mi South 5.8 mph - N/A   Clear
12:55 AM 65.7 °F 52.0 °F 61% 30.18 in 10.0 mi South 6.9 mph - N/A   Clear
1:15 AM 66.4 °F 51.8 °F 59% 30.18 in 10.0 mi South 8.1 mph - N/A   Clear
1:35 AM 66.7 °F 52.0 °F 59% 30.17 in 10.0 mi South 9.2 mph - N/A   Clear
1:55 AM 66.0 °F 52.0 °F 60% 30.17 in 10.0 mi South 6.9 mph - N/A   Clear
2:15 AM 65.3 °F 52.2 °F 62% 30.17 in 10.0 mi South 6.9 mph - N/A   Clear
2:35 AM 65.5 °F 52.2 °F 62% 30.17 in 10.0 mi South 8.1 mph - N/A   Clear
2:55 AM 63.7 °F 52.0 °F 66% 30.17 in 10.0 mi South 6.9 mph - N/A   Clear
3:15 AM 63.1 °F 52.0 °F 67% 30.17 in 10.0 mi South 6.9 mph - N/A   Clear
3:35 AM 64.0 °F 52.2 °F 65% 30.17 in 10.0 mi SSW 6.9 mph - N/A   Clear
3:55 AM 64.6 °F 52.7 °F 65% 30.17 in 10.0 mi SSW 6.9 mph - N/A   Clear
4:15 AM 63.5 °F 52.7 °F 68% 30.16 in 10.0 mi SSW 6.9 mph - N/A   Clear
4:35 AM 62.2 °F 52.9 °F 71% 30.16 in 10.0 mi SSW 6.9 mph - N/A   Clear
4:55 AM 60.3 °F 52.3 °F 75% 30.16 in 10.0 mi WSW 6.9 mph - N/A   Clear
5:15 AM 61.2 °F 53.4 °F 76% 30.16 in 10.0 mi WSW 4.6 mph - N/A   Clear
5:35 AM 61.9 °F 53.6 °F 74% 30.17 in 10.0 mi Calm Calm - N/A   Clear
5:55 AM 59.5 °F 52.7 °F 78% 30.17 in 10.0 mi South 5.8 mph - N/A   Clear
6:15 AM 57.7 °F 52.7 °F 83% 30.16 in 10.0 mi South 5.8 mph - N/A   Clear
6:35 AM 58.3 °F 52.7 °F 82% 30.16 in 10.0 mi SSW 3.5 mph - N/A   Clear
6:55 AM 59.0 °F 52.7 °F 80% 30.17 in 10.0 mi SW 3.5 mph - N/A   Clear
7:15 AM 58.6 °F 52.5 °F 80% 30.17 in 10.0 mi WSW 3.5 mph - N/A   Clear
7:35 AM 59.9 °F 52.7 °F 77% 30.18 in 10.0 mi Calm Calm - N/A   Clear
7:55 AM 59.9 °F 52.3 °F 76% 30.18 in 10.0 mi Calm Calm - N/A   Clear
8:15 AM 60.6 °F 53.2 °F 77% 30.18 in 10.0 mi SSW 4.6 mph - N/A   Clear
8:35 AM 63.9 °F 53.6 °F 69% 30.19 in 7.0 mi SSW 5.8 mph - N/A   Clear
8:55 AM 66.4 °F 53.2 °F 63% 30.19 in 10.0 mi SSW 6.9 mph - N/A   Clear
9:15 AM 69.3 °F 54.0 °F 58% 30.20 in 10.0 mi SW 6.9 mph - N/A   Clear
9:35 AM 72.5 °F 54.5 °F 53% 30.20 in 10.0 mi SW 9.2 mph - N/A   Clear
9:55 AM 74.7 °F 54.0 °F 48% 30.20 in 10.0 mi SSW 5.8 mph - N/A   Clear
10:15 AM 77.5 °F 53.4 °F 43% 30.20 in 10.0 mi SW 8.1 mph - N/A   Clear
10:35 AM 79.7 °F 52.7 °F 39% 30.20 in 10.0 mi SSW 9.2 mph - N/A   Clear
10:55 AM 82.0 °F 52.3 °F 36% 30.20 in 10.0 mi South 10.4 mph 16.1 mph N/A   Clear
11:15 AM 83.5 °F 51.3 °F 33% 30.20 in 10.0 mi SSW 11.5 mph 17.3 mph N/A   Clear
11:35 AM 85.1 °F 50.2 °F 30% 30.20 in 10.0 mi SSW 15.0 mph 20.7 mph N/A   Clear
11:55 AM 86.4 °F 49.8 °F 28% 30.19 in 10.0 mi SSW 12.7 mph 20.7 mph N/A   Clear
12:15 PM 87.8 °F 49.3 °F 26% 30.18 in 10.0 mi SSW 13.8 mph 17.3 mph N/A   Clear
12:35 PM 88.5 °F 48.7 °F 25% 30.18 in 10.0 mi SW 10.4 mph 19.6 mph N/A   Clear
12:55 PM 89.4 °F 48.2 °F 24% 30.17 in 10.0 mi SSW 9.2 mph 21.9 mph N/A   Clear
1:15 PM 90.3 °F 47.3 °F 23% 30.17 in 10.0 mi SW 12.7 mph 17.3 mph N/A   Clear
1:35 PM 90.3 °F 46.6 °F 22% 30.16 in 10.0 mi SW 9.2 mph 19.6 mph N/A   Clear
1:55 PM 90.9 °F 46.6 °F 22% 30.15 in 10.0 mi SW 13.8 mph 18.4 mph N/A   Clear
2:15 PM 91.0 °F 44.1 °F 20% 30.14 in 10.0 mi SW 12.7 mph 16.1 mph N/A   Clear
2:35 PM 92.1 °F 43.0 °F 18% 30.14 in 10.0 mi SSW 11.5 mph - N/A   Clear
2:55 PM 92.5 °F 42.1 °F 17% 30.13 in 10.0 mi South 10.4 mph - N/A   Clear
3:15 PM 92.1 °F 42.8 °F 18% 30.13 in 10.0 mi SSE 10.4 mph 19.6 mph N/A   Clear
3:35 PM 93.9 °F 41.4 °F 16% 30.13 in 10.0 mi SSE 11.5 mph 25.3 mph N/A   Clear
3:55 PM 91.9 °F 41.0 °F 17% 30.12 in 10.0 mi SSE 10.4 mph 20.7 mph N/A   Clear
4:15 PM 92.8 °F 42.1 °F 17% 30.11 in 10.0 mi South 8.1 mph 23.0 mph N/A   Clear
4:35 PM 92.7 °F 40.8 °F 16% 30.11 in 10.0 mi South 10.4 mph 23.0 mph N/A   Clear
4:55 PM 93.0 °F 39.9 °F 16% 30.10 in 10.0 mi South 9.2 mph - N/A   Clear
5:15 PM 92.3 °F 38.3 °F 15% 30.09 in 10.0 mi South 12.7 mph 21.9 mph N/A   Clear
5:35 PM 92.3 °F 37.8 °F 15% 30.09 in 10.0 mi SSW 12.7 mph 23.0 mph N/A   Clear
5:55 PM 91.8 °F 37.0 °F 15% 30.09 in 10.0 mi SSE 16.1 mph - N/A   Clear
6:15 PM 90.7 °F 38.5 °F 16% 30.08 in 10.0 mi South 13.8 mph 18.4 mph N/A   Clear
6:35 PM 90.0 °F 37.0 °F 15% 30.08 in 10.0 mi South 11.5 mph 16.1 mph N/A   Clear
6:55 PM 89.8 °F 34.9 °F 14% 30.08 in 10.0 mi South 8.1 mph - N/A   Clear
7:15 PM 88.9 °F 34.9 °F 15% 30.08 in 10.0 mi South 10.4 mph - N/A   Clear
7:35 PM 87.8 °F 36.7 °F 16% 30.08 in 10.0 mi South 8.1 mph - N/A   Clear
7:55 PM 86.0 °F 41.2 °F 21% 30.08 in 10.0 mi South 8.1 mph - N/A   Clear
8:15 PM 82.4 °F 44.4 °F 26% 30.09 in 10.0 mi SSE 6.9 mph - N/A   Clear
8:35 PM 79.0 °F 45.3 °F 30% 30.09 in 10.0 mi SSE 8.1 mph - N/A   Clear
8:55 PM 78.3 °F 46.9 °F 33% 30.10 in 10.0 mi SSE 9.2 mph - N/A   Clear
9:15 PM 78.4 °F 47.3 °F 33% 30.10 in 10.0 mi SSE 9.2 mph - N/A   Clear
9:35 PM 77.5 °F 47.5 °F 35% 30.10 in 10.0 mi SSE 9.2 mph - N/A   Clear
9:55 PM 77.4 °F 46.8 °F 34% 30.12 in 10.0 mi SSE 10.4 mph - N/A   Clear
10:15 PM 76.5 °F 47.1 °F 35% 30.12 in 10.0 mi SSE 10.4 mph - N/A   Clear
10:35 PM 75.6 °F 48.2 °F 38% 30.12 in 10.0 mi SSE 10.4 mph - N/A   Clear
10:55 PM 74.3 °F 49.1 °F 41% 30.13 in 10.0 mi SSE 10.4 mph - N/A   Clear
11:15 PM 74.3 °F 50.7 °F 43% 30.13 in 10.0 mi SSE 9.2 mph - N/A   Clear
11:35 PM 73.9 °F 52.2 °F 46% 30.13 in 10.0 mi SSE 9.2 mph - N/A   Clear
11:55 PM 72.5 °F 53.1 °F 50% 30.14 in 10.0 mi SSE 8.1 mph - N/A   Clear